sensor_id;sensor_type;location;lat;lon;timestamp;pressure;altitude;pressure_sealevel;temperature;humidity
65376;BME280;51976;47.332;9.404;2023-04-27T00:00:47;92740.78;;;8.02;76.39
65376;BME280;51976;47.332;9.404;2023-04-27T00:03:13;92733.25;;;8.29;75.53
65376;BME280;51976;47.332;9.404;2023-04-27T00:05:38;92701.06;;;8.04;75.60
65376;BME280;51976;47.332;9.404;2023-04-27T00:08:05;92732.44;;;8.24;75.78
65376;BME280;51976;47.332;9.404;2023-04-27T00:10:30;92726.53;;;8.22;75.87
65376;BME280;51976;47.332;9.404;2023-04-27T00:12:56;92694.59;;;8.20;75.41
65376;BME280;51976;47.332;9.404;2023-04-27T00:15:21;92715.22;;;8.55;74.79
65376;BME280;51976;47.332;9.404;2023-04-27T00:17:47;92716.63;;;8.42;74.38
65376;BME280;51976;47.332;9.404;2023-04-27T00:20:12;92723.34;;;8.40;74.62
65376;BME280;51976;47.332;9.404;2023-04-27T00:22:38;92718.22;;;8.38;74.94
65376;BME280;51976;47.332;9.404;2023-04-27T00:25:04;92723.56;;;8.28;74.88
65376;BME280;51976;47.332;9.404;2023-04-27T00:27:30;92701.06;;;8.19;74.84
65376;BME280;51976;47.332;9.404;2023-04-27T00:29:55;92716.59;;;8.22;75.03
65376;BME280;51976;47.332;9.404;2023-04-27T00:32:21;92709.66;;;8.16;75.78
65376;BME280;51976;47.332;9.404;2023-04-27T00:34:46;92688.97;;;7.71;76.66
65376;BME280;51976;47.332;9.404;2023-04-27T00:37:12;92707.50;;;7.72;77.06
65376;BME280;51976;47.332;9.404;2023-04-27T00:39:37;92697.84;;;7.81;76.95
65376;BME280;51976;47.332;9.404;2023-04-27T00:42:03;92659.22;;;7.88;75.75
65376;BME280;51976;47.332;9.404;2023-04-27T00:44:28;92677.44;;;8.01;75.89
65376;BME280;51976;47.332;9.404;2023-04-27T00:46:54;92686.03;;;8.13;75.86
65376;BME280;51976;47.332;9.404;2023-04-27T00:49:20;92703.69;;;8.29;75.53
65376;BME280;51976;47.332;9.404;2023-04-27T00:51:47;92712.59;;;8.20;76.06
65376;BME280;51976;47.332;9.404;2023-04-27T00:54:14;92697.84;;;8.12;75.85
65376;BME280;51976;47.332;9.404;2023-04-27T00:56:40;92697.84;;;8.07;75.86
65376;BME280;51976;47.332;9.404;2023-04-27T00:59:05;92711.50;;;8.21;75.96
65376;BME280;51976;47.332;9.404;2023-04-27T01:01:31;92715.53;;;8.23;75.46
65376;BME280;51976;47.332;9.404;2023-04-27T01:03:56;92705.88;;;7.97;75.92
65376;BME280;51976;47.332;9.404;2023-04-27T01:06:22;92722.25;;;8.10;75.34
65376;BME280;51976;47.332;9.404;2023-04-27T01:08:47;92721.19;;;7.76;76.05
65376;BME280;51976;47.332;9.404;2023-04-27T01:11:13;92704.81;;;7.67;76.50
65376;BME280;51976;47.332;9.404;2023-04-27T01:13:38;92701.06;;;7.63;76.82
65376;BME280;51976;47.332;9.404;2023-04-27T01:16:04;92720.94;;;7.82;76.67
65376;BME280;51976;47.332;9.404;2023-04-27T01:18:29;92728.19;;;7.92;76.38
65376;BME280;51976;47.332;9.404;2023-04-27T01:20:55;92731.66;;;8.03;76.27
65376;BME280;51976;47.332;9.404;2023-04-27T01:23:20;92688.47;;;7.89;75.94
65376;BME280;51976;47.332;9.404;2023-04-27T01:25:46;92727.63;;;8.10;76.05
65376;BME280;51976;47.332;9.404;2023-04-27T01:28:11;92723.88;;;8.17;76.20
65376;BME280;51976;47.332;9.404;2023-04-27T01:30:36;92731.38;;;8.25;75.61
65376;BME280;51976;47.332;9.404;2023-04-27T01:33:02;92729.78;;;8.13;75.46
65376;BME280;51976;47.332;9.404;2023-04-27T01:35:28;92722.00;;;8.12;75.36
65376;BME280;51976;47.332;9.404;2023-04-27T01:37:53;92730.81;;;8.23;75.22
65376;BME280;51976;47.332;9.404;2023-04-27T01:40:18;92735.13;;;8.29;75.36
65376;BME280;51976;47.332;9.404;2023-04-27T01:42:44;92686.81;;;7.98;75.02
65376;BME280;51976;47.332;9.404;2023-04-27T01:45:10;92729.25;;;8.06;75.69
65376;BME280;51976;47.332;9.404;2023-04-27T01:47:35;92728.69;;;7.99;75.96
65376;BME280;51976;47.332;9.404;2023-04-27T01:50:01;92733.00;;;7.85;76.61
65376;BME280;51976;47.332;9.404;2023-04-27T01:52:26;92713.41;;;7.69;77.19
65376;BME280;51976;47.332;9.404;2023-04-27T01:54:52;92717.16;;;7.84;77.28
65376;BME280;51976;47.332;9.404;2023-04-27T01:57:17;92737.56;;;8.00;76.87
65376;BME280;51976;47.332;9.404;2023-04-27T01:59:43;92747.78;;;7.88;77.44
65376;BME280;51976;47.332;9.404;2023-04-27T02:02:09;92724.69;;;8.02;76.66
65376;BME280;51976;47.332;9.404;2023-04-27T02:04:34;92714.75;;;8.02;76.21
65376;BME280;51976;47.332;9.404;2023-04-27T02:07:00;92720.91;;;8.18;75.72
65376;BME280;51976;47.332;9.404;2023-04-27T02:09:26;92731.38;;;8.14;75.79
65376;BME280;51976;47.332;9.404;2023-04-27T02:11:51;92727.09;;;8.13;75.84
65376;BME280;51976;47.332;9.404;2023-04-27T02:14:17;92687.91;;;7.87;75.57
65376;BME280;51976;47.332;9.404;2023-04-27T02:16:42;92733.81;;;8.11;76.05
65376;BME280;51976;47.332;9.404;2023-04-27T02:19:07;92738.63;;;8.04;76.41
65376;BME280;51976;47.332;9.404;2023-04-27T02:21:33;92742.13;;;8.04;76.55
65376;BME280;51976;47.332;9.404;2023-04-27T02:23:58;92727.91;;;7.84;76.75
65376;BME280;51976;47.332;9.404;2023-04-27T02:26:23;92740.25;;;8.05;76.36
65376;BME280;51976;47.332;9.404;2023-04-27T02:28:53;92739.44;;;7.99;75.95
65376;BME280;51976;47.332;9.404;2023-04-27T02:31:19;92752.34;;;7.87;76.26
65376;BME280;51976;47.332;9.404;2023-04-27T02:33:44;92746.69;;;7.99;76.01
65376;BME280;51976;47.332;9.404;2023-04-27T02:36:10;92728.69;;;7.94;76.08
65376;BME280;51976;47.332;9.404;2023-04-27T02:38:35;92738.09;;;7.97;75.76
65376;BME280;51976;47.332;9.404;2023-04-27T02:41:00;92725.50;;;7.82;76.19
65376;BME280;51976;47.332;9.404;2023-04-27T02:43:26;92734.88;;;8.00;76.09
65376;BME280;51976;47.332;9.404;2023-04-27T02:45:51;92688.19;;;7.60;76.17
65376;BME280;51976;47.332;9.404;2023-04-27T02:48:17;92741.88;;;8.11;76.12
65376;BME280;51976;47.332;9.404;2023-04-27T02:50:43;92670.19;;;7.76;76.14
65376;BME280;51976;47.332;9.404;2023-04-27T02:53:10;92735.16;;;8.19;75.72
65376;BME280;51976;47.332;9.404;2023-04-27T02:55:36;92718.50;;;8.01;76.16
65376;BME280;51976;47.332;9.404;2023-04-27T02:58:01;92740.53;;;8.19;75.76
65376;BME280;51976;47.332;9.404;2023-04-27T03:00:27;92739.16;;;8.21;75.30
65376;BME280;51976;47.332;9.404;2023-04-27T03:02:52;92745.09;;;8.18;76.19
65376;BME280;51976;47.332;9.404;2023-04-27T03:05:18;92736.25;;;7.92;76.44
65376;BME280;51976;47.332;9.404;2023-04-27T03:07:43;92739.72;;;8.08;75.87
65376;BME280;51976;47.332;9.404;2023-04-27T03:10:09;92715.84;;;7.91;75.98
65376;BME280;51976;47.332;9.404;2023-04-27T03:12:35;92731.94;;;8.06;76.66
65376;BME280;51976;47.332;9.404;2023-04-27T03:15:01;92733.00;;;7.90;77.08
65376;BME280;51976;47.332;9.404;2023-04-27T03:17:26;92729.78;;;7.78;77.38
65376;BME280;51976;47.332;9.404;2023-04-27T03:19:52;92702.94;;;7.73;77.10
65376;BME280;51976;47.332;9.404;2023-04-27T03:22:18;92741.31;;;7.99;76.98
65376;BME280;51976;47.332;9.404;2023-04-27T03:24:43;92734.06;;;8.04;76.34
65376;BME280;51976;47.332;9.404;2023-04-27T03:27:09;92636.91;;;7.16;76.68
65376;BME280;51976;47.332;9.404;2023-04-27T03:29:34;92735.97;;;7.89;76.72
65376;BME280;51976;47.332;9.404;2023-04-27T03:32:00;92747.75;;;7.72;76.79
65376;BME280;51976;47.332;9.404;2023-04-27T03:34:25;92746.66;;;7.68;77.38
65376;BME280;51976;47.332;9.404;2023-04-27T03:36:50;92616.22;;;6.86;77.50
65376;BME280;51976;47.332;9.404;2023-04-27T03:39:16;92753.91;;;7.58;77.83
65376;BME280;51976;47.332;9.404;2023-04-27T03:41:41;92693.50;;;7.30;77.76
65376;BME280;51976;47.332;9.404;2023-04-27T03:44:07;92733.53;;;7.72;77.38
65376;BME280;51976;47.332;9.404;2023-04-27T03:46:32;92722.53;;;7.58;77.55
65376;BME280;51976;47.332;9.404;2023-04-27T03:48:58;92757.16;;;7.85;77.15
65376;BME280;51976;47.332;9.404;2023-04-27T03:51:23;92683.88;;;7.49;77.29
65376;BME280;51976;47.332;9.404;2023-04-27T03:53:49;92740.50;;;7.78;77.67
65376;BME280;51976;47.332;9.404;2023-04-27T03:56:14;92741.28;;;7.68;78.00
65376;BME280;51976;47.332;9.404;2023-04-27T03:58:39;92703.72;;;7.68;77.06
65376;BME280;51976;47.332;9.404;2023-04-27T04:01:05;92750.94;;;7.54;77.00
65376;BME280;51976;47.332;9.404;2023-04-27T04:03:30;92749.91;;;7.65;76.87
65376;BME280;51976;47.332;9.404;2023-04-27T04:05:56;92730.81;;;7.67;76.67
65376;BME280;51976;47.332;9.404;2023-04-27T04:08:21;92735.38;;;7.66;75.96
65376;BME280;51976;47.332;9.404;2023-04-27T04:10:46;92733.50;;;7.57;76.67
65376;BME280;51976;47.332;9.404;2023-04-27T04:13:12;92747.50;;;7.89;75.79
65376;BME280;51976;47.332;9.404;2023-04-27T04:15:37;92746.16;;;8.02;75.90
65376;BME280;51976;47.332;9.404;2023-04-27T04:18:02;92755.53;;;8.04;75.54
65376;BME280;51976;47.332;9.404;2023-04-27T04:20:28;92760.09;;;7.73;76.38
65376;BME280;51976;47.332;9.404;2023-04-27T04:22:53;92755.81;;;7.77;76.65
65376;BME280;51976;47.332;9.404;2023-04-27T04:25:19;92752.59;;;7.86;76.57
65376;BME280;51976;47.332;9.404;2023-04-27T04:27:45;92716.63;;;7.61;76.38
65376;BME280;51976;47.332;9.404;2023-04-27T04:30:12;92741.59;;;7.92;76.13
65376;BME280;51976;47.332;9.404;2023-04-27T04:32:38;92741.84;;;7.55;76.88
65376;BME280;51976;47.332;9.404;2023-04-27T04:35:04;92757.94;;;7.60;77.24
65376;BME280;51976;47.332;9.404;2023-04-27T04:37:32;92682.22;;;7.18;77.09
65376;BME280;51976;47.332;9.404;2023-04-27T04:39:58;92754.44;;;7.70;77.14
65376;BME280;51976;47.332;9.404;2023-04-27T04:42:23;92761.97;;;7.73;76.23
65376;BME280;51976;47.332;9.404;2023-04-27T04:44:49;92762.25;;;7.87;76.17
65376;BME280;51976;47.332;9.404;2023-04-27T04:47:15;92744.53;;;7.80;76.25
65376;BME280;51976;47.332;9.404;2023-04-27T04:49:44;92769.25;;;7.88;76.27
65376;BME280;51976;47.332;9.404;2023-04-27T04:52:10;92761.72;;;7.90;76.40
65376;BME280;51976;47.332;9.404;2023-04-27T04:54:35;92694.06;;;7.47;76.38
65376;BME280;51976;47.332;9.404;2023-04-27T04:57:00;92704.81;;;7.67;75.95
65376;BME280;51976;47.332;9.404;2023-04-27T04:59:27;92703.19;;;7.66;76.30
65376;BME280;51976;47.332;9.404;2023-04-27T05:01:53;92755.53;;;7.94;76.47
65376;BME280;51976;47.332;9.404;2023-04-27T05:04:20;92760.09;;;8.04;76.53
65376;BME280;51976;47.332;9.404;2023-04-27T05:06:45;92728.97;;;7.98;76.38
65376;BME280;51976;47.332;9.404;2023-04-27T05:09:11;92753.38;;;8.22;76.57
65376;BME280;51976;47.332;9.404;2023-04-27T05:11:36;92755.34;;;9.16;76.76
65376;BME280;51976;47.332;9.404;2023-04-27T05:14:02;92753.84;;;9.93;73.70
65376;BME280;51976;47.332;9.404;2023-04-27T05:16:27;92721.22;;;10.00;72.28
65376;BME280;51976;47.332;9.404;2023-04-27T05:18:52;92747.63;;;9.98;70.89
65376;BME280;51976;47.332;9.404;2023-04-27T05:21:19;92752.31;;;10.16;72.02
65376;BME280;51976;47.332;9.404;2023-04-27T05:23:45;92716.59;;;10.05;70.82
65376;BME280;51976;47.332;9.404;2023-04-27T05:26:15;92738.38;;;10.43;70.23
65376;BME280;51976;47.332;9.404;2023-04-27T05:28:41;92744.59;;;9.65;70.12
65376;BME280;51976;47.332;9.404;2023-04-27T05:31:07;92745.53;;;9.45;71.12
65376;BME280;51976;47.332;9.404;2023-04-27T05:33:32;92743.88;;;9.00;71.84
65376;BME280;51976;47.332;9.404;2023-04-27T05:35:58;92754.09;;;8.88;72.66
65376;BME280;51976;47.332;9.404;2023-04-27T05:38:24;92757.41;;;8.65;73.33
65376;BME280;51976;47.332;9.404;2023-04-27T05:40:56;92758.19;;;8.65;72.90
65376;BME280;51976;47.332;9.404;2023-04-27T05:43:22;92747.75;;;8.48;72.75
65376;BME280;51976;47.332;9.404;2023-04-27T05:45:47;92745.09;;;8.43;72.42
65376;BME280;51976;47.332;9.404;2023-04-27T05:48:13;92759.03;;;8.30;72.70
65376;BME280;51976;47.332;9.404;2023-04-27T05:50:38;92749.38;;;8.04;73.54
65376;BME280;51976;47.332;9.404;2023-04-27T05:53:04;92744.53;;;8.06;73.74
65376;BME280;51976;47.332;9.404;2023-04-27T05:55:30;92719.56;;;8.15;74.03
65376;BME280;51976;47.332;9.404;2023-04-27T05:57:55;92737.56;;;8.40;74.48
65376;BME280;51976;47.332;9.404;2023-04-27T06:00:21;92749.38;;;8.39;74.64
65376;BME280;51976;47.332;9.404;2023-04-27T06:02:47;92729.50;;;8.40;74.48
65376;BME280;51976;47.332;9.404;2023-04-27T06:05:12;92754.44;;;8.61;74.38
65376;BME280;51976;47.332;9.404;2023-04-27T06:07:38;92765.69;;;8.83;74.15
65376;BME280;51976;47.332;9.404;2023-04-27T06:10:04;92761.66;;;8.76;73.57
65376;BME280;51976;47.332;9.404;2023-04-27T06:12:30;92774.31;;;8.70;74.28
65376;BME280;51976;47.332;9.404;2023-04-27T06:14:56;92763.84;;;8.74;74.21
65376;BME280;51976;47.332;9.404;2023-04-27T06:17:21;92759.81;;;8.61;73.93
65376;BME280;51976;47.332;9.404;2023-04-27T06:19:47;92781.31;;;8.61;74.38
65376;BME280;51976;47.332;9.404;2023-04-27T06:22:12;92779.16;;;8.73;74.46
65376;BME280;51976;47.332;9.404;2023-04-27T06:24:37;92774.31;;;8.70;73.66
65376;BME280;51976;47.332;9.404;2023-04-27T06:27:03;92761.16;;;8.64;73.67
65376;BME280;51976;47.332;9.404;2023-04-27T06:29:29;92741.06;;;8.36;74.28
65376;BME280;51976;47.332;9.404;2023-04-27T06:31:54;92757.94;;;8.31;75.02
65376;BME280;51976;47.332;9.404;2023-04-27T06:34:20;92781.03;;;8.68;74.52
65376;BME280;51976;47.332;9.404;2023-04-27T06:36:46;92783.16;;;8.81;74.18
65376;BME280;51976;47.332;9.404;2023-04-27T06:39:12;92771.09;;;8.63;74.28
65376;BME280;51976;47.332;9.404;2023-04-27T06:41:37;92774.06;;;8.62;74.00
65376;BME280;51976;47.332;9.404;2023-04-27T06:44:03;92773.19;;;8.81;74.20
65376;BME280;51976;47.332;9.404;2023-04-27T06:46:30;92773.50;;;8.75;74.30
65376;BME280;51976;47.332;9.404;2023-04-27T06:48:55;92754.09;;;8.88;74.13
65376;BME280;51976;47.332;9.404;2023-04-27T06:51:21;92713.63;;;8.54;74.22
65376;BME280;51976;47.332;9.404;2023-04-27T06:53:46;92786.88;;;8.95;73.72
65376;BME280;51976;47.332;9.404;2023-04-27T06:56:12;92773.19;;;8.92;73.67
65376;BME280;51976;47.332;9.404;2023-04-27T06:58:38;92794.75;;;8.71;72.74
65376;BME280;51976;47.332;9.404;2023-04-27T07:01:03;92793.63;;;8.77;72.69
65376;BME280;51976;47.332;9.404;2023-04-27T07:03:29;92781.00;;;8.78;72.63
65376;BME280;51976;47.332;9.404;2023-04-27T07:05:55;92799.75;;;9.03;72.22
65376;BME280;51976;47.332;9.404;2023-04-27T07:08:21;92809.41;;;9.14;72.08
65376;BME280;51976;47.332;9.404;2023-04-27T07:10:47;92800.78;;;9.28;71.84
65376;BME280;51976;47.332;9.404;2023-04-27T07:13:12;92804.56;;;9.16;72.61
65376;BME280;51976;47.332;9.404;2023-04-27T07:15:37;92801.84;;;9.27;73.01
65376;BME280;51976;47.332;9.404;2023-04-27T07:18:03;92802.31;;;9.39;72.99
65376;BME280;51976;47.332;9.404;2023-04-27T07:20:28;92757.22;;;9.15;72.46
65376;BME280;51976;47.332;9.404;2023-04-27T07:22:54;92701.97;;;8.79;72.55
65376;BME280;51976;47.332;9.404;2023-04-27T07:25:20;92803.84;;;9.60;71.84
65376;BME280;51976;47.332;9.404;2023-04-27T07:27:46;92799.75;;;9.68;71.90
65376;BME280;51976;47.332;9.404;2023-04-27T07:30:12;92799.75;;;9.73;71.05
65376;BME280;51976;47.332;9.404;2023-04-27T07:32:39;92802.09;;;9.84;70.83
65376;BME280;51976;47.332;9.404;2023-04-27T07:35:06;92803.38;;;9.92;70.43
65376;BME280;51976;47.332;9.404;2023-04-27T07:37:33;92735.59;;;9.41;69.56
65376;BME280;51976;47.332;9.404;2023-04-27T07:39:59;92769.63;;;9.66;69.20
65376;BME280;51976;47.332;9.404;2023-04-27T07:42:26;92810.75;;;9.81;69.06
65376;BME280;51976;47.332;9.404;2023-04-27T07:44:52;92811.75;;;9.85;69.01
65376;BME280;51976;47.332;9.404;2023-04-27T07:47:18;92809.44;;;9.69;69.33
65376;BME280;51976;47.332;9.404;2023-04-27T07:49:44;92798.53;;;9.45;69.52
65376;BME280;51976;47.332;9.404;2023-04-27T07:52:12;92800.94;;;9.46;69.78
65376;BME280;51976;47.332;9.404;2023-04-27T07:54:38;92819.41;;;9.68;69.66
65376;BME280;51976;47.332;9.404;2023-04-27T07:57:08;92800.59;;;9.58;69.65
65376;BME280;51976;47.332;9.404;2023-04-27T07:59:36;92783.97;;;9.51;70.40
65376;BME280;51976;47.332;9.404;2023-04-27T08:02:02;92820.44;;;9.77;70.34
65376;BME280;51976;47.332;9.404;2023-04-27T08:04:28;92798.28;;;9.91;70.05
65376;BME280;51976;47.332;9.404;2023-04-27T08:06:53;92751.53;;;9.76;70.04
65376;BME280;51976;47.332;9.404;2023-04-27T08:09:19;92803.44;;;10.31;69.17
65376;BME280;51976;47.332;9.404;2023-04-27T08:11:45;92828.72;;;10.35;68.10
65376;BME280;51976;47.332;9.404;2023-04-27T08:14:10;92822.69;;;10.48;66.17
65376;BME280;51976;47.332;9.404;2023-04-27T08:16:40;92816.94;;;10.60;65.48
65376;BME280;51976;47.332;9.404;2023-04-27T08:19:08;92760.19;;;10.46;66.00
65376;BME280;51976;47.332;9.404;2023-04-27T08:21:34;92812.00;;;10.96;64.59
65376;BME280;51976;47.332;9.404;2023-04-27T08:24:00;92803.81;;;11.06;64.02
65376;BME280;51976;47.332;9.404;2023-04-27T08:26:26;92816.06;;;11.46;63.55
65376;BME280;51976;47.332;9.404;2023-04-27T08:28:51;92805.94;;;11.57;63.06
65376;BME280;51976;47.332;9.404;2023-04-27T08:31:17;92798.03;;;11.42;62.61
65376;BME280;51976;47.332;9.404;2023-04-27T08:33:44;92809.63;;;11.18;62.02
65376;BME280;51976;47.332;9.404;2023-04-27T08:36:11;92777.16;;;10.76;62.54
65376;BME280;51976;47.332;9.404;2023-04-27T08:38:37;92786.19;;;10.90;62.33
65376;BME280;51976;47.332;9.404;2023-04-27T08:41:03;92801.38;;;10.81;61.65
65376;BME280;51976;47.332;9.404;2023-04-27T08:43:34;92783.75;;;10.65;62.38
65376;BME280;51976;47.332;9.404;2023-04-27T08:46:00;92777.75;;;10.97;62.63
65376;BME280;51976;47.332;9.404;2023-04-27T08:48:26;92795.25;;;10.99;63.25
65376;BME280;51976;47.332;9.404;2023-04-27T08:50:52;92799.22;;;11.31;62.68
65376;BME280;51976;47.332;9.404;2023-04-27T08:53:19;92798.66;;;11.34;62.79
65376;BME280;51976;47.332;9.404;2023-04-27T08:55:49;92799.41;;;11.15;62.22
65376;BME280;51976;47.332;9.404;2023-04-27T08:58:14;92798.25;;;11.22;62.50
65376;BME280;51976;47.332;9.404;2023-04-27T09:00:41;92749.28;;;11.33;62.72
65376;BME280;51976;47.332;9.404;2023-04-27T09:03:23;92767.09;;;11.96;61.15
65376;BME280;51976;47.332;9.404;2023-04-27T09:05:49;92747.31;;;11.81;59.86
65376;BME280;51976;47.332;9.404;2023-04-27T09:08:15;92794.09;;;12.33;58.18
65376;BME280;51976;47.332;9.404;2023-04-27T09:10:45;92764.63;;;12.18;57.06
65376;BME280;51976;47.332;9.404;2023-04-27T09:13:11;92779.88;;;12.60;57.13
65376;BME280;51976;47.332;9.404;2023-04-27T09:15:45;92776.63;;;12.44;56.56
65376;BME280;51976;47.332;9.404;2023-04-27T09:18:15;92722.34;;;11.90;57.42
65376;BME280;51976;47.332;9.404;2023-04-27T09:20:42;92749.41;;;12.22;57.95
65376;BME280;51976;47.332;9.404;2023-04-27T09:23:08;92784.44;;;12.46;58.32
65376;BME280;51976;47.332;9.404;2023-04-27T09:25:34;92727.47;;;11.91;56.45
65376;BME280;51976;47.332;9.404;2023-04-27T09:28:00;92787.03;;;12.18;56.71
65376;BME280;51976;47.332;9.404;2023-04-27T09:30:27;92781.47;;;12.10;57.62
65376;BME280;51976;47.332;9.404;2023-04-27T09:32:58;92771.47;;;12.29;57.44
65376;BME280;51976;47.332;9.404;2023-04-27T09:35:27;92768.53;;;12.44;57.56
65376;BME280;51976;47.332;9.404;2023-04-27T09:37:54;92763.53;;;12.51;58.16
65376;BME280;51976;47.332;9.404;2023-04-27T09:40:25;92772.28;;;12.62;58.20
65376;BME280;51976;47.332;9.404;2023-04-27T09:42:54;92773.72;;;12.41;57.86
65376;BME280;51976;47.332;9.404;2023-04-27T09:45:22;92774.75;;;12.59;57.56
65376;BME280;51976;47.332;9.404;2023-04-27T09:47:48;92768.53;;;12.77;56.74
65376;BME280;51976;47.332;9.404;2023-04-27T09:50:14;92727.09;;;12.63;57.01
65376;BME280;51976;47.332;9.404;2023-04-27T09:52:40;92766.63;;;12.91;56.95
65376;BME280;51976;47.332;9.404;2023-04-27T09:55:08;92766.78;;;12.67;57.85
65376;BME280;51976;47.332;9.404;2023-04-27T09:57:50;92728.13;;;12.67;57.71
65376;BME280;51976;47.332;9.404;2023-04-27T10:03:20;92758.66;;;13.68;56.11
65376;BME280;51976;47.332;9.404;2023-04-27T10:08:52;92760.75;;;13.85;55.68
65376;BME280;51976;47.332;9.404;2023-04-27T10:11:17;92758.81;;;13.36;56.42
65376;BME280;51976;47.332;9.404;2023-04-27T10:13:51;92756.88;;;13.23;56.53
65376;BME280;51976;47.332;9.404;2023-04-27T10:16:18;92752.28;;;13.37;57.15
65376;BME280;51976;47.332;9.404;2023-04-27T10:18:51;92726.56;;;12.79;57.83
65376;BME280;51976;47.332;9.404;2023-04-27T10:21:18;92747.47;;;12.87;57.81
65376;BME280;51976;47.332;9.404;2023-04-27T10:23:47;92742.16;;;12.69;57.56
65376;BME280;51976;47.332;9.404;2023-04-27T10:26:21;92748.78;;;12.90;58.08
65376;BME280;51976;47.332;9.404;2023-04-27T10:28:55;92749.59;;;12.91;57.63
65376;BME280;51976;47.332;9.404;2023-04-27T10:31:26;92755.75;;;13.10;57.26
65376;BME280;51976;47.332;9.404;2023-04-27T10:33:53;92727.91;;;13.37;57.74
65376;BME280;51976;47.332;9.404;2023-04-27T10:36:36;92739.22;;;13.66;56.55
65376;BME280;51976;47.332;9.404;2023-04-27T10:39:02;92715.47;;;13.22;56.14
65376;BME280;51976;47.332;9.404;2023-04-27T10:41:37;92743.03;;;13.10;57.16
65376;BME280;51976;47.332;9.404;2023-04-27T10:44:19;92743.41;;;13.04;56.60
65376;BME280;51976;47.332;9.404;2023-04-27T10:46:54;92725.78;;;13.20;56.36
65376;BME280;51976;47.332;9.404;2023-04-27T10:49:21;92750.63;;;13.08;56.89
65376;BME280;51976;47.332;9.404;2023-04-27T10:51:49;92746.22;;;13.12;56.48
65376;BME280;51976;47.332;9.404;2023-04-27T10:54:14;92688.50;;;13.03;56.55
65376;BME280;51976;47.332;9.404;2023-04-27T10:56:41;92733.41;;;13.18;56.89
65376;BME280;51976;47.332;9.404;2023-04-27T10:59:07;92742.31;;;13.05;56.05
65376;BME280;51976;47.332;9.404;2023-04-27T11:01:32;92745.81;;;13.05;56.47
65376;BME280;51976;47.332;9.404;2023-04-27T11:03:59;92749.31;;;13.06;57.52
65376;BME280;51976;47.332;9.404;2023-04-27T11:06:26;92742.19;;;12.82;58.11
65376;BME280;51976;47.332;9.404;2023-04-27T11:08:52;92748.09;;;12.84;58.12
65376;BME280;51976;47.332;9.404;2023-04-27T11:11:19;92689.31;;;12.44;57.60
65376;BME280;51976;47.332;9.404;2023-04-27T11:13:47;92735.94;;;12.68;57.45
65376;BME280;51976;47.332;9.404;2023-04-27T11:16:14;92680.13;;;12.59;57.57
65376;BME280;51976;47.332;9.404;2023-04-27T11:18:40;92755.75;;;13.10;57.17
65376;BME280;51976;47.332;9.404;2023-04-27T11:21:12;92754.97;;;13.23;57.41
65376;BME280;51976;47.332;9.404;2023-04-27T11:23:39;92740.84;;;13.26;56.93
65376;BME280;51976;47.332;9.404;2023-04-27T11:26:11;92731.16;;;12.79;56.01
65376;BME280;51976;47.332;9.404;2023-04-27T11:28:38;92764.50;;;13.20;55.44
65376;BME280;51976;47.332;9.404;2023-04-27T11:31:05;92709.28;;;12.62;58.25
65376;BME280;51976;47.332;9.404;2023-04-27T11:33:31;92758.81;;;12.76;59.24
65376;BME280;51976;47.332;9.404;2023-04-27T11:35:57;92724.88;;;12.51;59.34
65376;BME280;51976;47.332;9.404;2023-04-27T11:38:23;92748.06;;;12.71;59.16
65376;BME280;51976;47.332;9.404;2023-04-27T11:41:03;92713.28;;;12.50;59.35
65376;BME280;51976;47.332;9.404;2023-04-27T11:43:29;92723.38;;;12.59;59.63
65376;BME280;51976;47.332;9.404;2023-04-27T11:45:56;92749.16;;;12.56;60.44
65376;BME280;51976;47.332;9.404;2023-04-27T11:48:23;92758.88;;;12.71;60.13
65376;BME280;51976;47.332;9.404;2023-04-27T11:50:49;92706.84;;;12.46;59.65
65376;BME280;51976;47.332;9.404;2023-04-27T11:53:15;92761.00;;;12.87;59.88
65376;BME280;51976;47.332;9.404;2023-04-27T11:55:41;92758.34;;;13.15;59.10
65376;BME280;51976;47.332;9.404;2023-04-27T11:58:14;92750.81;;;12.98;59.27
65376;BME280;51976;47.332;9.404;2023-04-27T12:00:40;92746.50;;;12.97;59.91
65376;BME280;51976;47.332;9.404;2023-04-27T12:03:05;92732.97;;;12.97;59.56
65376;BME280;51976;47.332;9.404;2023-04-27T12:05:31;92750.38;;;13.24;58.99
65376;BME280;51976;47.332;9.404;2023-04-27T12:07:57;92748.94;;;13.12;58.39
65376;BME280;51976;47.332;9.404;2023-04-27T12:10:23;92700.13;;;13.04;58.40
65376;BME280;51976;47.332;9.404;2023-04-27T12:12:48;92763.19;;;13.59;58.69
65376;BME280;51976;47.332;9.404;2023-04-27T12:15:14;92736.13;;;13.32;58.84
65376;BME280;51976;47.332;9.404;2023-04-27T12:17:40;92752.47;;;13.27;58.47
65376;BME280;51976;47.332;9.404;2023-04-27T12:20:06;92734.19;;;13.05;59.20
65376;BME280;51976;47.332;9.404;2023-04-27T12:22:32;92753.06;;;13.65;57.67
65376;BME280;51976;47.332;9.404;2023-04-27T12:24:58;92672.75;;;12.92;58.02
65376;BME280;51976;47.332;9.404;2023-04-27T12:27:23;92759.09;;;13.34;57.98
65376;BME280;51976;47.332;9.404;2023-04-27T12:29:49;92751.47;;;13.50;57.58
65376;BME280;51976;47.332;9.404;2023-04-27T12:32:14;92753.22;;;13.68;57.75
65376;BME280;51976;47.332;9.404;2023-04-27T12:34:40;92677.69;;;13.31;57.36
65376;BME280;51976;47.332;9.404;2023-04-27T12:37:07;92713.16;;;13.15;58.38
65376;BME280;51976;47.332;9.404;2023-04-27T12:39:32;92756.69;;;13.33;59.28
65376;BME280;51976;47.332;9.404;2023-04-27T12:41:58;92700.84;;;13.23;58.07
65376;BME280;51976;47.332;9.404;2023-04-27T12:44:23;92733.34;;;13.37;57.81
65376;BME280;51976;47.332;9.404;2023-04-27T12:46:49;92731.72;;;13.36;57.68
65376;BME280;51976;47.332;9.404;2023-04-27T12:49:15;92752.66;;;13.44;57.92
65376;BME280;51976;47.332;9.404;2023-04-27T12:51:41;92754.16;;;13.50;57.07
65376;BME280;51976;47.332;9.404;2023-04-27T12:54:08;92654.22;;;12.99;57.01
65376;BME280;51976;47.332;9.404;2023-04-27T12:56:34;92749.34;;;13.61;56.67
65376;BME280;51976;47.332;9.404;2023-04-27T12:59:00;92739.81;;;13.63;56.18
65376;BME280;51976;47.332;9.404;2023-04-27T13:01:26;92619.22;;;13.02;56.23
65376;BME280;51976;47.332;9.404;2023-04-27T13:03:58;92738.78;;;13.86;56.05
65376;BME280;51976;47.332;9.404;2023-04-27T13:06:26;92733.50;;;14.04;55.29
65376;BME280;51976;47.332;9.404;2023-04-27T13:08:51;92702.84;;;13.95;55.11